Time;durP1;ratioP1;P1;durP2;ratioP2;P2;SDS_P1;SDS_P2;PMS_P1;PMS_P2;Temp;Humidity;BMP_temperature;BMP_pressure;BME280_temperature;BME280_humidity;BME280_pressure;Samples;Min_cycle;Max_cycle;Signal;HPM_P1;HPM_P2
2022/02/09 07:05:31;;;;;;;3.25;2.30;;;;;;;;;;10671003;27;20249;-83
2022/02/09 07:10:38;;;;;;;2.65;1.30;;;;;;;;;;10635896;27;20069;-83
2022/02/09 08:01:34;;;;;;;2.25;1.50;;;;;;;;;;10675861;27;20035;-83
2022/02/09 08:06:35;;;;;;;;;;;;;;;;;;10660239;27;20472;-80
2022/02/09 08:11:50;;;;;;;3.15;1.95;;;;;;;;;;10661248;27;19902;-81
2022/02/09 08:27:23;;;;;;;4.90;3.88;;;;;;;;;;10679154;27;20034;-79
2022/02/09 08:32:37;;;;;;;4.75;2.83;;;;;;;;;;10657884;27;20117;-78
2022/02/09 08:37:38;;;;;;;4.03;2.95;;;;;;;;;;10658380;27;20057;-80
2022/02/09 08:42:39;;;;;;;3.80;2.50;;;;;;;;;;10659169;27;20046;-81
2022/02/09 08:47:40;;;;;;;;;;;;;;;;;;10668213;27;20023;-79
2022/02/09 08:52:41;;;;;;;4.85;3.03;;;;;;;;;;10669287;27;19903;-79
2022/02/09 08:57:42;;;;;;;6.10;3.05;;;;;;;;;;10693032;27;20026;-79
2022/02/09 09:02:47;;;;;;;4.78;3.65;;;;;;;;;;10685002;27;20019;-79
2022/02/09 09:07:55;;;;;;;5.38;4.18;;;;;;;;;;10662527;27;20038;-78
2022/02/09 09:18:50;;;;;;;5.20;2.90;;;;;;;;;;10690056;27;20464;-78
2022/02/09 10:01:51;;;;;;;2.15;1.70;;;;;;;;;;10653179;27;20019;-82
2022/02/09 10:33:37;;;;;;;3.60;2.40;;;;;;;;;;10650288;27;20034;-82
2022/02/09 10:38:41;;;;;;;4.05;2.65;;;;;;;;;;10665781;27;20014;-83
2022/02/09 10:43:45;;;;;;;4.05;2.40;;;;;;;;;;10667227;27;20054;-83
2022/02/09 10:48:53;;;;;;;4.05;2.00;;;;;;;;;;10685980;27;20045;-82
2022/02/09 10:54:00;;;;;;;4.43;2.17;;;;;;;;;;10668412;27;20023;-82
2022/02/09 10:59:02;;;;;;;3.38;2.20;;;;;;;;;;10670013;27;20029;-84
2022/02/09 11:04:05;;;;;;;6.75;3.40;;;;;;;;;;10670463;27;20022;-82
2022/02/09 11:09:06;;;;;;;3.92;2.35;;;;;;;;;;10697916;27;20049;-82
2022/02/09 11:14:14;;;;;;;4.38;2.22;;;;;;;;;;10698477;27;20030;-81
2022/02/09 11:19:17;;;;;;;4.20;2.10;;;;;;;;;;10694762;27;20057;-83
2022/02/09 11:24:20;;;;;;;3.35;2.20;;;;;;;;;;10674283;27;20026;-83
2022/02/09 11:34:26;;;;;;;2.40;1.60;;;;;;;;;;10706617;27;20098;-82
2022/02/09 11:39:27;;;;;;;;;;;;;;;;;;10704920;27;20060;-82
2022/02/09 11:44:38;;;;;;;4.32;2.70;;;;;;;;;;10673411;27;19910;-82
2022/02/09 11:50:10;;;;;;;3.28;2.22;;;;;;;;;;10688078;27;20075;-81
2022/02/09 12:01:18;;;;;;;3.53;2.08;;;;;;;;;;10693167;27;20027;-81
2022/02/09 12:12:03;;;;;;;3.07;2.00;;;;;;;;;;10690321;27;20024;-81
2022/02/09 12:22:26;;;;;;;3.65;2.17;;;;;;;;;;10694883;27;20034;-82
2022/02/09 12:27:27;;;;;;;4.60;2.65;;;;;;;;;;10696630;27;20029;-80
2022/02/09 12:32:29;;;;;;;4.68;2.47;;;;;;;;;;10690659;27;20022;-81
2022/02/09 12:37:41;;;;;;;4.80;2.17;;;;;;;;;;10687200;27;20027;-81
2022/02/09 12:42:47;;;;;;;4.05;2.38;;;;;;;;;;10679596;27;20064;-79
2022/02/09 12:47:49;;;;;;;3.63;2.95;;;;;;;;;;10697786;27;20060;-82
2022/02/09 12:52:52;;;;;;;2.90;1.88;;;;;;;;;;10690760;27;20155;-81
2022/02/09 12:57:55;;;;;;;4.60;3.03;;;;;;;;;;10670498;27;20053;-82
2022/02/09 13:02:58;;;;;;;4.00;2.80;;;;;;;;;;10691916;27;20040;-80
2022/02/09 13:07:59;;;;;;;4.25;3.20;;;;;;;;;;10669029;27;20114;-80
2022/02/09 13:13:11;;;;;;;;;;;;;;;;;;10674218;27;20052;-80
2022/02/09 13:18:36;;;;;;;2.97;1.90;;;;;;;;;;10677663;27;19911;-80
2022/02/09 13:23:59;;;;;;;2.55;1.95;;;;;;;;;;10673877;27;20044;-79
2022/02/09 14:59:09;;;;;;;4.93;1.83;;;;;;;;;;10694966;27;20125;-82
2022/02/09 15:04:26;;;;;;;3.15;2.30;;;;;;;;;;10669607;27;20026;-82
2022/02/09 15:09:52;;;;;;;2.55;1.50;;;;;;;;;;10670973;27;20510;-83
2022/02/09 15:20:13;;;;;;;4.90;2.50;;;;;;;;;;10710721;27;20086;-82
2022/02/09 15:25:20;;;;;;;6.22;2.58;;;;;;;;;;10712382;27;20030;-81
2022/02/09 15:30:21;;;;;;;2.67;1.63;;;;;;;;;;10692134;27;20048;-81
2022/02/09 15:35:35;;;;;;;7.50;5.53;;;;;;;;;;10698739;27;20015;-80
2022/02/09 15:40:51;;;;;;;5.25;3.55;;;;;;;;;;10695450;27;20058;-81
2022/02/09 16:22:34;;;;;;;3.07;1.53;;;;;;;;;;10722560;27;20091;-83
2022/02/09 16:49:03;;;;;;;2.22;1.30;;;;;;;;;;10683652;27;20491;-83
2022/02/09 17:26:26;;;;;;;3.83;2.50;;;;;;;;;;10682869;27;20031;-84
2022/02/09 19:08:19;;;;;;;3.65;1.98;;;;;;;;;;10684633;27;20031;-84
2022/02/09 19:31:10;;;;;;;2.95;1.92;;;;;;;;;;10682759;27;20393;-85
2022/02/09 19:47:31;;;;;;;3.47;2.33;;;;;;;;;;10676724;27;20035;-84
2022/02/09 19:52:58;;;;;;;4.20;2.28;;;;;;;;;;10658633;27;20058;-84
2022/02/09 19:58:17;;;;;;;3.85;2.55;;;;;;;;;;10685095;27;20019;-85
2022/02/09 20:03:45;;;;;;;;;;;;;;;;;;10710169;27;20031;-85
2022/02/09 20:08:46;;;;;;;3.22;2.47;;;;;;;;;;10668661;27;20002;-84
2022/02/09 20:14:11;;;;;;;3.08;2.20;;;;;;;;;;10667872;27;20066;-85
2022/02/09 20:19:42;;;;;;;5.53;3.28;;;;;;;;;;10674679;27;20026;-85
2022/02/09 20:24:55;;;;;;;2.40;1.80;;;;;;;;;;10674959;27;20035;-85
2022/02/09 20:30:11;;;;;;;3.25;2.00;;;;;;;;;;10690029;27;20045;-85
2022/02/09 20:35:14;;;;;;;2.67;2.10;;;;;;;;;;10663130;27;20072;-84
2022/02/09 20:40:23;;;;;;;3.25;2.08;;;;;;;;;;10661835;27;20392;-84
2022/02/09 20:50:32;;;;;;;3.65;1.70;;;;;;;;;;10680952;27;20103;-84
2022/02/09 20:55:51;;;;;;;3.25;2.42;;;;;;;;;;10661916;27;20446;-84
2022/02/09 21:00:56;;;;;;;3.13;2.20;;;;;;;;;;10660515;27;20037;-84
